createdAt,value
2022-12-16T00:02:10.161Z,86.66
2022-12-16T00:07:10.047Z,85.39
2022-12-16T00:12:10.042Z,85.33
2022-12-16T00:17:09.949Z,84.80
2022-12-16T00:22:09.901Z,85.05
2022-12-16T00:27:09.834Z,85.11
2022-12-16T00:32:09.811Z,84.73
2022-12-16T00:37:09.710Z,85.58
2022-12-16T00:42:09.658Z,85.22
2022-12-16T00:47:09.592Z,84.94
2022-12-16T00:52:09.570Z,84.73
2022-12-16T00:57:09.501Z,84.73
2022-12-16T01:02:09.568Z,85.36
2022-12-16T01:07:09.383Z,84.84
2022-12-16T01:12:09.367Z,84.94
2022-12-16T01:17:09.269Z,85.16
2022-12-16T01:22:09.264Z,85.16
2022-12-16T01:27:09.173Z,85.36
2022-12-16T01:32:09.216Z,84.84
2022-12-16T01:37:09.135Z,84.52
2022-12-16T01:42:09.045Z,84.56
2022-12-16T01:47:09.068Z,84.66
2022-12-16T01:52:09.005Z,84.94
2022-12-16T01:57:08.875Z,84.73
2022-12-16T02:02:09.055Z,84.73
2022-12-16T02:07:08.762Z,84.66
2022-12-16T02:13:35.564Z,84.88
2022-12-16T02:18:20.018Z,84.94
2022-12-16T02:23:19.952Z,84.13
2022-12-16T03:47:30.420Z,85.41
2022-12-16T03:52:52.382Z,85.19
2022-12-16T03:57:30.346Z,85.09
2022-12-16T04:02:30.386Z,84.81
2022-12-16T05:15:59.939Z,83.78
2022-12-16T05:20:59.924Z,84.00
2022-12-16T05:25:59.844Z,84.42
2022-12-16T05:32:46.708Z,84.31
2022-12-16T05:37:11.180Z,84.42
2022-12-16T05:42:10.999Z,85.34
2022-12-16T05:47:11.075Z,84.59
2022-12-16T05:52:10.871Z,84.53
2022-12-16T05:57:10.809Z,84.00
2022-12-16T06:02:10.937Z,83.89
2022-12-16T06:07:10.717Z,83.82
2022-12-16T06:12:10.668Z,84.35
2022-12-16T06:17:10.638Z,85.10
2022-12-16T06:22:10.548Z,85.38
2022-12-16T06:27:13.914Z,84.00
2022-12-16T06:32:10.474Z,83.57
2022-12-16T06:37:10.438Z,83.92
2022-12-16T06:42:10.347Z,83.39
2022-12-16T06:47:10.365Z,84.67
2022-12-16T06:52:10.251Z,84.25
2022-12-16T06:57:11.099Z,83.50
2022-12-16T07:02:10.329Z,84.88
2022-12-16T07:07:10.144Z,84.35
2022-12-16T07:12:10.141Z,83.72
2022-12-16T07:17:15.235Z,84.14
2022-12-16T07:22:10.974Z,83.92
2022-12-16T07:27:09.906Z,84.56
2022-12-16T07:32:09.886Z,84.25
2022-12-16T07:37:09.820Z,84.56
2022-12-16T07:42:09.757Z,84.20
2022-12-16T07:47:09.675Z,84.10
2022-12-16T07:52:09.625Z,83.89
2022-12-16T07:57:09.603Z,84.10
2022-12-16T08:02:09.670Z,84.42
2022-12-16T08:07:09.481Z,84.48
2022-12-16T08:12:09.445Z,84.48
2022-12-16T08:17:09.423Z,84.38
2022-12-16T08:22:09.362Z,85.09
2022-12-16T08:27:09.348Z,84.23
2022-12-16T08:32:09.212Z,83.95
2022-12-16T08:37:09.205Z,84.23
2022-12-16T08:42:09.117Z,84.13
2022-12-16T08:47:09.063Z,84.03
2022-12-16T08:52:09.024Z,85.09
2022-12-16T08:57:08.984Z,84.84
2022-12-16T09:02:09.144Z,84.52
2022-12-16T09:07:08.878Z,85.33
2022-12-16T09:12:08.842Z,85.25
2022-12-16T09:17:08.876Z,85.96
2022-12-16T09:22:08.718Z,85.49
2022-12-16T09:27:08.698Z,85.24
2022-12-16T09:32:08.705Z,85.73
2022-12-16T09:37:08.575Z,86.08
2022-12-16T09:42:08.513Z,86.15
2022-12-16T09:47:08.828Z,87.12
2022-12-16T09:52:09.146Z,86.91
2022-12-16T09:57:08.360Z,86.66
2022-12-16T10:02:08.420Z,86.20
2022-12-16T10:07:08.224Z,87.42
2022-12-16T10:12:08.204Z,86.76
2022-12-16T10:17:08.161Z,86.82
2022-12-16T10:22:08.111Z,86.78
2022-12-16T10:27:08.030Z,88.10
2022-12-16T10:32:08.055Z,87.40
2022-12-16T10:37:12.353Z,86.87
2022-12-16T10:42:08.910Z,87.15
2022-12-16T10:47:07.851Z,87.63
2022-12-16T10:52:08.851Z,87.38
2022-12-16T10:57:07.735Z,87.28
2022-12-16T11:02:07.786Z,87.45
2022-12-16T11:07:07.643Z,87.45
2022-12-16T11:12:07.565Z,87.72
2022-12-16T11:17:16.367Z,87.68
2022-12-16T11:22:07.511Z,87.79
2022-12-16T11:27:07.418Z,87.89
2022-12-16T11:32:07.427Z,87.85
2022-12-16T11:37:10.409Z,88.27
2022-12-16T11:42:07.360Z,88.27
2022-12-16T11:47:07.190Z,88.75
2022-12-16T11:52:28.500Z,88.71
2022-12-16T11:57:08.193Z,88.50
2022-12-16T12:02:07.170Z,88.40
2022-12-16T12:07:07.128Z,88.78
2022-12-16T12:12:06.967Z,88.67
2022-12-16T12:17:06.883Z,88.21
2022-12-16T12:22:06.898Z,88.32
2022-12-16T12:27:06.831Z,88.01
2022-12-16T12:32:06.716Z,88.11
2022-12-16T12:37:06.721Z,87.94
2022-12-16T12:42:06.752Z,87.94
2022-12-16T12:47:06.641Z,88.40
2022-12-16T12:52:06.530Z,88.61
2022-12-16T12:57:06.485Z,88.82
2022-12-16T13:02:06.557Z,89.20
2022-12-16T13:07:06.413Z,88.36
2022-12-16T13:12:06.336Z,89.13
2022-12-16T13:17:06.247Z,88.82
2022-12-16T13:22:06.222Z,89.23
2022-12-16T13:27:06.243Z,89.23
2022-12-16T13:32:06.229Z,88.57
2022-12-16T13:37:06.109Z,88.74
2022-12-16T13:42:06.007Z,87.80
2022-12-16T13:47:06.022Z,87.59
2022-12-16T13:52:05.901Z,87.38
2022-12-16T13:57:05.870Z,87.42
2022-12-16T14:02:05.911Z,87.84
2022-12-16T14:07:05.734Z,88.04
2022-12-16T14:12:06.704Z,87.66
2022-12-16T14:17:05.852Z,88.57
2022-12-16T14:22:05.600Z,87.73
2022-12-16T14:27:05.565Z,88.29
2022-12-16T14:32:05.694Z,88.61
2022-12-16T14:37:05.547Z,88.82
2022-12-16T14:42:05.468Z,88.19
2022-12-16T14:47:05.369Z,88.40
2022-12-16T14:52:05.379Z,88.92
2022-12-16T14:57:06.254Z,88.40
2022-12-16T15:02:05.471Z,89.07
2022-12-16T15:07:05.102Z,88.40
2022-12-16T15:12:05.144Z,88.59
2022-12-16T15:17:05.076Z,88.59
2022-12-16T15:22:04.994Z,88.37
2022-12-16T15:27:04.885Z,88.90
2022-12-16T15:32:04.904Z,88.37
2022-12-16T15:37:04.797Z,88.48
2022-12-16T15:42:04.734Z,88.10
2022-12-16T15:47:04.694Z,88.98
2022-12-16T15:52:04.647Z,89.47
2022-12-16T15:57:04.616Z,88.52
2022-12-16T16:02:05.342Z,88.18
2022-12-16T16:07:04.483Z,88.18
2022-12-16T16:12:04.399Z,88.71
2022-12-16T16:17:04.444Z,88.43
2022-12-16T16:22:04.316Z,88.43
2022-12-16T16:27:04.319Z,89.69
2022-12-16T16:32:04.760Z,90.07
2022-12-16T16:37:04.162Z,89.65
2022-12-16T16:42:04.183Z,88.85
2022-12-16T16:47:04.116Z,88.47
2022-12-16T16:52:04.043Z,88.37
2022-12-16T16:57:04.978Z,88.68
2022-12-16T17:02:04.090Z,88.82
2022-12-16T17:07:03.861Z,89.21
2022-12-16T17:12:03.878Z,88.89
2022-12-16T17:17:03.813Z,88.79
2022-12-16T17:22:03.879Z,90.00
2022-12-16T17:27:03.819Z,89.90
2022-12-16T17:32:03.751Z,89.59
2022-12-16T17:37:03.725Z,89.48
2022-12-16T17:42:03.641Z,89.17
2022-12-16T17:47:03.637Z,89.48
2022-12-16T17:52:03.487Z,89.59
2022-12-16T17:57:03.407Z,91.58
2022-12-16T18:02:03.542Z,90.70
2022-12-16T18:07:03.382Z,90.59
2022-12-16T18:12:03.348Z,90.07
2022-12-16T18:17:03.247Z,90.17
2022-12-16T18:22:03.199Z,89.97
2022-12-16T18:27:03.165Z,89.79
2022-12-16T18:32:03.175Z,90.05
2022-12-16T18:37:02.947Z,90.53
2022-12-16T18:42:02.904Z,90.53
2022-12-16T18:47:02.850Z,90.42
2022-12-16T18:52:02.842Z,89.79
2022-12-16T18:57:02.725Z,90.28
2022-12-16T19:02:02.778Z,89.86
2022-12-16T19:07:02.683Z,89.86
2022-12-16T19:12:02.563Z,89.86
2022-12-16T19:17:02.472Z,89.59
2022-12-16T19:22:02.421Z,89.37
2022-12-16T19:27:02.381Z,89.52
2022-12-16T19:32:02.370Z,90.36
2022-12-16T19:37:02.374Z,90.05
2022-12-16T19:42:02.199Z,90.15
2022-12-16T19:47:02.209Z,89.52
2022-12-16T19:52:04.152Z,89.31
2022-12-16T19:57:02.030Z,89.42
2022-12-16T20:02:02.337Z,89.48
2022-12-16T20:07:01.939Z,89.37
2022-12-16T20:12:01.903Z,89.42
2022-12-16T20:17:01.835Z,89.84
2022-12-16T20:27:02.735Z,89.84
2022-12-16T20:32:01.789Z,90.51
2022-12-16T20:37:01.647Z,90.67
2022-12-16T20:42:01.700Z,90.36
2022-12-16T20:47:03.623Z,89.84
2022-12-16T20:52:01.436Z,89.62
2022-12-16T20:57:01.405Z,89.77
2022-12-16T21:02:22.801Z,90.66
2022-12-16T21:07:02.319Z,91.07
2022-12-16T21:12:01.228Z,90.61
2022-12-16T21:17:01.387Z,89.50
2022-12-16T21:22:01.231Z,89.92
2022-12-16T21:27:01.092Z,89.77
2022-12-16T21:32:01.044Z,89.42
2022-12-16T21:37:00.999Z,89.35
2022-12-16T21:42:00.919Z,89.25
2022-12-16T21:47:00.965Z,89.35
2022-12-16T21:52:00.839Z,89.71
2022-12-16T21:57:00.797Z,89.56
2022-12-16T22:02:00.840Z,89.56
2022-12-16T22:07:00.660Z,89.87
2022-12-16T22:12:00.644Z,90.02
2022-12-16T22:17:00.627Z,90.66
2022-12-16T22:22:00.656Z,89.98
2022-12-16T22:27:00.456Z,89.98
2022-12-16T22:32:00.403Z,89.94
2022-12-16T22:37:00.313Z,89.77
2022-12-16T22:42:00.296Z,90.19
2022-12-16T22:47:00.242Z,90.19
2022-12-16T22:52:00.428Z,90.09
2022-12-16T22:57:00.127Z,90.09
2022-12-16T23:02:00.289Z,90.61
2022-12-16T23:07:00.076Z,90.97
2022-12-16T23:11:59.985Z,91.49
2022-12-16T23:16:59.929Z,90.61
2022-12-16T23:21:59.859Z,90.09
2022-12-16T23:26:59.855Z,89.87
2022-12-16T23:31:59.767Z,89.98
2022-12-16T23:32:31.024Z,89.94
2022-12-16T23:36:59.737Z,89.94
2022-12-16T23:41:59.675Z,90.09
2022-12-16T23:46:59.684Z,90.15
2022-12-16T23:51:59.662Z,90.19
2022-12-16T23:56:59.535Z,90.92
